sensor_id;sensor_type;location;lat;lon;timestamp;temperature;humidity
3298;DHT22;1661;53.572;10.174;2022-10-31T00:01:24;13.50;85.00
3298;DHT22;1661;53.572;10.174;2022-10-31T00:03:53;13.40;84.80
3298;DHT22;1661;53.572;10.174;2022-10-31T00:06:20;13.40;84.80
3298;DHT22;1661;53.572;10.174;2022-10-31T00:08:47;13.40;84.90
3298;DHT22;1661;53.572;10.174;2022-10-31T00:11:17;13.40;85.10
3298;DHT22;1661;53.572;10.174;2022-10-31T00:13:44;13.40;85.90
3298;DHT22;1661;53.572;10.174;2022-10-31T00:16:14;13.40;85.70
3298;DHT22;1661;53.572;10.174;2022-10-31T00:18:42;13.40;86.10
3298;DHT22;1661;53.572;10.174;2022-10-31T00:21:10;13.30;85.90
3298;DHT22;1661;53.572;10.174;2022-10-31T00:23:37;13.40;86.00
3298;DHT22;1661;53.572;10.174;2022-10-31T00:26:04;13.40;86.10
3298;DHT22;1661;53.572;10.174;2022-10-31T00:28:32;13.40;86.50
3298;DHT22;1661;53.572;10.174;2022-10-31T00:31:00;13.40;86.70
3298;DHT22;1661;53.572;10.174;2022-10-31T00:33:26;13.40;87.20
3298;DHT22;1661;53.572;10.174;2022-10-31T00:35:53;13.40;87.70
3298;DHT22;1661;53.572;10.174;2022-10-31T00:38:22;13.50;87.90
3298;DHT22;1661;53.572;10.174;2022-10-31T00:40:48;13.50;88.20
3298;DHT22;1661;53.572;10.174;2022-10-31T00:43:15;13.50;88.50
3298;DHT22;1661;53.572;10.174;2022-10-31T00:45:42;13.50;88.40
3298;DHT22;1661;53.572;10.174;2022-10-31T00:48:10;13.50;88.20
3298;DHT22;1661;53.572;10.174;2022-10-31T00:50:37;13.50;88.10
3298;DHT22;1661;53.572;10.174;2022-10-31T00:53:04;13.50;87.90
3298;DHT22;1661;53.572;10.174;2022-10-31T00:55:33;13.50;87.50
3298;DHT22;1661;53.572;10.174;2022-10-31T00:58:00;13.50;87.60
3298;DHT22;1661;53.572;10.174;2022-10-31T01:00:29;13.50;88.00
3298;DHT22;1661;53.572;10.174;2022-10-31T01:02:56;13.50;87.70
3298;DHT22;1661;53.572;10.174;2022-10-31T01:05:23;13.50;87.30
3298;DHT22;1661;53.572;10.174;2022-10-31T01:07:52;13.50;87.10
3298;DHT22;1661;53.572;10.174;2022-10-31T01:10:19;13.50;87.40
3298;DHT22;1661;53.572;10.174;2022-10-31T01:12:48;13.50;87.30
3298;DHT22;1661;53.572;10.174;2022-10-31T01:15:19;13.50;87.20
3298;DHT22;1661;53.572;10.174;2022-10-31T01:17:46;13.50;86.90
3298;DHT22;1661;53.572;10.174;2022-10-31T01:20:14;13.50;86.80
3298;DHT22;1661;53.572;10.174;2022-10-31T01:22:42;13.50;86.70
3298;DHT22;1661;53.572;10.174;2022-10-31T01:25:10;13.50;86.70
3298;DHT22;1661;53.572;10.174;2022-10-31T01:27:37;13.40;86.80
3298;DHT22;1661;53.572;10.174;2022-10-31T01:30:06;13.50;87.10
3298;DHT22;1661;53.572;10.174;2022-10-31T01:32:33;13.50;87.00
3298;DHT22;1661;53.572;10.174;2022-10-31T01:34:59;13.40;86.70
3298;DHT22;1661;53.572;10.174;2022-10-31T01:37:26;13.40;86.80
3298;DHT22;1661;53.572;10.174;2022-10-31T01:39:53;13.50;86.90
3298;DHT22;1661;53.572;10.174;2022-10-31T01:42:22;13.50;86.70
3298;DHT22;1661;53.572;10.174;2022-10-31T01:44:58;13.50;86.80
3298;DHT22;1661;53.572;10.174;2022-10-31T01:47:41;13.50;87.20
3298;DHT22;1661;53.572;10.174;2022-10-31T01:50:15;13.50;87.50
3298;DHT22;1661;53.572;10.174;2022-10-31T01:52:46;13.50;87.90
3298;DHT22;1661;53.572;10.174;2022-10-31T01:55:17;13.50;87.30
3298;DHT22;1661;53.572;10.174;2022-10-31T01:57:50;13.50;87.10
3298;DHT22;1661;53.572;10.174;2022-10-31T02:00:19;13.50;87.00
3298;DHT22;1661;53.572;10.174;2022-10-31T02:02:48;13.60;87.20
3298;DHT22;1661;53.572;10.174;2022-10-31T02:05:17;13.50;86.80
3298;DHT22;1661;53.572;10.174;2022-10-31T02:07:50;13.60;87.30
3298;DHT22;1661;53.572;10.174;2022-10-31T02:10:21;13.60;87.40
3298;DHT22;1661;53.572;10.174;2022-10-31T02:12:49;13.60;87.20
3298;DHT22;1661;53.572;10.174;2022-10-31T02:15:16;13.60;87.50
3298;DHT22;1661;53.572;10.174;2022-10-31T02:17:43;13.60;87.50
3298;DHT22;1661;53.572;10.174;2022-10-31T02:20:15;13.60;87.40
3298;DHT22;1661;53.572;10.174;2022-10-31T02:23:08;13.60;87.60
3298;DHT22;1661;53.572;10.174;2022-10-31T02:25:51;13.60;87.60
3298;DHT22;1661;53.572;10.174;2022-10-31T02:28:33;13.60;87.70
3298;DHT22;1661;53.572;10.174;2022-10-31T02:31:17;13.60;87.90
3298;DHT22;1661;53.572;10.174;2022-10-31T02:33:51;13.60;87.70
3298;DHT22;1661;53.572;10.174;2022-10-31T02:36:24;13.70;87.90
3298;DHT22;1661;53.572;10.174;2022-10-31T02:39:02;13.70;88.10
3298;DHT22;1661;53.572;10.174;2022-10-31T02:41:40;13.70;88.50
3298;DHT22;1661;53.572;10.174;2022-10-31T02:44:16;13.70;89.20
3298;DHT22;1661;53.572;10.174;2022-10-31T02:46:52;13.80;89.40
3298;DHT22;1661;53.572;10.174;2022-10-31T02:49:23;13.80;89.80
3298;DHT22;1661;53.572;10.174;2022-10-31T02:51:54;13.80;90.60
3298;DHT22;1661;53.572;10.174;2022-10-31T02:54:23;13.90;91.20
3298;DHT22;1661;53.572;10.174;2022-10-31T02:56:53;13.90;91.40
3298;DHT22;1661;53.572;10.174;2022-10-31T02:59:22;14.00;91.70
3298;DHT22;1661;53.572;10.174;2022-10-31T03:02:04;14.00;92.00
3298;DHT22;1661;53.572;10.174;2022-10-31T03:04:48;14.10;92.40
3298;DHT22;1661;53.572;10.174;2022-10-31T03:07:28;14.10;92.80
3298;DHT22;1661;53.572;10.174;2022-10-31T03:10:07;14.20;92.70
3298;DHT22;1661;53.572;10.174;2022-10-31T03:12:39;14.20;92.80
3298;DHT22;1661;53.572;10.174;2022-10-31T03:15:14;14.20;92.80
3298;DHT22;1661;53.572;10.174;2022-10-31T03:17:52;14.20;92.70
3298;DHT22;1661;53.572;10.174;2022-10-31T03:20:23;14.30;92.50
3298;DHT22;1661;53.572;10.174;2022-10-31T03:22:51;14.30;92.50
3298;DHT22;1661;53.572;10.174;2022-10-31T03:25:18;14.30;92.40
3298;DHT22;1661;53.572;10.174;2022-10-31T03:27:46;14.30;92.20
3298;DHT22;1661;53.572;10.174;2022-10-31T03:30:14;14.30;92.00
3298;DHT22;1661;53.572;10.174;2022-10-31T03:32:44;14.30;91.80
3298;DHT22;1661;53.572;10.174;2022-10-31T03:35:16;14.30;91.90
3298;DHT22;1661;53.572;10.174;2022-10-31T03:37:44;14.30;92.00
3298;DHT22;1661;53.572;10.174;2022-10-31T03:40:13;14.30;92.10
3298;DHT22;1661;53.572;10.174;2022-10-31T03:42:43;14.30;92.10
3298;DHT22;1661;53.572;10.174;2022-10-31T03:45:14;14.30;91.80
3298;DHT22;1661;53.572;10.174;2022-10-31T03:47:44;14.30;91.60
3298;DHT22;1661;53.572;10.174;2022-10-31T03:50:14;14.30;91.60
3298;DHT22;1661;53.572;10.174;2022-10-31T03:52:43;14.30;91.70
3298;DHT22;1661;53.572;10.174;2022-10-31T03:55:17;14.30;91.80
3298;DHT22;1661;53.572;10.174;2022-10-31T03:57:51;14.30;91.80
3298;DHT22;1661;53.572;10.174;2022-10-31T04:00:19;14.30;91.50
3298;DHT22;1661;53.572;10.174;2022-10-31T04:02:53;14.30;90.80
3298;DHT22;1661;53.572;10.174;2022-10-31T04:05:21;14.20;90.40
3298;DHT22;1661;53.572;10.174;2022-10-31T04:07:52;14.20;89.70
3298;DHT22;1661;53.572;10.174;2022-10-31T04:10:21;14.20;89.70
3298;DHT22;1661;53.572;10.174;2022-10-31T04:12:51;14.20;89.90
3298;DHT22;1661;53.572;10.174;2022-10-31T04:15:20;14.20;90.10
3298;DHT22;1661;53.572;10.174;2022-10-31T04:17:51;14.20;90.20
3298;DHT22;1661;53.572;10.174;2022-10-31T04:20:29;14.20;90.60
3298;DHT22;1661;53.572;10.174;2022-10-31T04:22:56;14.20;90.60
3298;DHT22;1661;53.572;10.174;2022-10-31T04:25:30;14.10;90.20
3298;DHT22;1661;53.572;10.174;2022-10-31T04:27:57;14.10;90.60
3298;DHT22;1661;53.572;10.174;2022-10-31T04:30:24;14.10;90.10
3298;DHT22;1661;53.572;10.174;2022-10-31T04:32:52;14.10;89.50
3298;DHT22;1661;53.572;10.174;2022-10-31T04:35:21;14.00;89.40
3298;DHT22;1661;53.572;10.174;2022-10-31T04:37:50;14.00;89.00
3298;DHT22;1661;53.572;10.174;2022-10-31T04:40:17;14.00;88.70
3298;DHT22;1661;53.572;10.174;2022-10-31T04:42:44;13.90;88.50
3298;DHT22;1661;53.572;10.174;2022-10-31T04:45:10;13.90;88.30
3298;DHT22;1661;53.572;10.174;2022-10-31T04:47:37;13.90;88.30
3298;DHT22;1661;53.572;10.174;2022-10-31T04:50:06;13.80;88.00
3298;DHT22;1661;53.572;10.174;2022-10-31T04:52:32;13.80;87.80
3298;DHT22;1661;53.572;10.174;2022-10-31T04:54:59;13.80;87.80
3298;DHT22;1661;53.572;10.174;2022-10-31T04:57:28;13.80;87.70
3298;DHT22;1661;53.572;10.174;2022-10-31T04:59:55;13.70;87.40
3298;DHT22;1661;53.572;10.174;2022-10-31T05:02:22;13.70;87.40
3298;DHT22;1661;53.572;10.174;2022-10-31T05:04:48;13.70;87.50
3298;DHT22;1661;53.572;10.174;2022-10-31T05:07:16;13.70;87.70
3298;DHT22;1661;53.572;10.174;2022-10-31T05:09:43;13.70;87.70
3298;DHT22;1661;53.572;10.174;2022-10-31T05:12:10;13.70;87.70
3298;DHT22;1661;53.572;10.174;2022-10-31T05:14:36;13.60;87.70
3298;DHT22;1661;53.572;10.174;2022-10-31T05:17:03;13.60;87.90
3298;DHT22;1661;53.572;10.174;2022-10-31T05:19:30;13.60;88.00
3298;DHT22;1661;53.572;10.174;2022-10-31T05:21:56;13.60;88.00
3298;DHT22;1661;53.572;10.174;2022-10-31T05:24:24;13.70;88.00
3298;DHT22;1661;53.572;10.174;2022-10-31T05:26:54;13.70;88.10
3298;DHT22;1661;53.572;10.174;2022-10-31T05:29:23;13.70;88.00
3298;DHT22;1661;53.572;10.174;2022-10-31T05:31:50;13.70;88.00
3298;DHT22;1661;53.572;10.174;2022-10-31T05:34:16;13.70;88.10
3298;DHT22;1661;53.572;10.174;2022-10-31T05:36:43;13.70;88.20
3298;DHT22;1661;53.572;10.174;2022-10-31T05:39:10;13.70;88.20
3298;DHT22;1661;53.572;10.174;2022-10-31T05:41:38;13.80;88.10
3298;DHT22;1661;53.572;10.174;2022-10-31T05:44:05;13.80;88.10
3298;DHT22;1661;53.572;10.174;2022-10-31T05:46:31;13.80;88.50
3298;DHT22;1661;53.572;10.174;2022-10-31T05:48:58;13.80;88.30
3298;DHT22;1661;53.572;10.174;2022-10-31T05:51:25;13.80;88.10
3298;DHT22;1661;53.572;10.174;2022-10-31T05:53:52;13.90;88.30
3298;DHT22;1661;53.572;10.174;2022-10-31T05:56:18;13.90;88.80
3298;DHT22;1661;53.572;10.174;2022-10-31T05:58:46;13.90;88.90
3298;DHT22;1661;53.572;10.174;2022-10-31T06:01:13;14.00;89.20
3298;DHT22;1661;53.572;10.174;2022-10-31T06:03:40;14.00;89.00
3298;DHT22;1661;53.572;10.174;2022-10-31T06:06:06;14.00;89.30
3298;DHT22;1661;53.572;10.174;2022-10-31T06:08:33;14.00;89.70
3298;DHT22;1661;53.572;10.174;2022-10-31T06:11:00;14.10;89.60
3298;DHT22;1661;53.572;10.174;2022-10-31T06:13:27;14.10;89.60
3298;DHT22;1661;53.572;10.174;2022-10-31T06:15:55;14.10;89.80
3298;DHT22;1661;53.572;10.174;2022-10-31T06:18:21;14.20;90.30
3298;DHT22;1661;53.572;10.174;2022-10-31T06:20:48;14.20;90.60
3298;DHT22;1661;53.572;10.174;2022-10-31T06:23:15;14.20;90.60
3298;DHT22;1661;53.572;10.174;2022-10-31T06:25:42;14.20;90.70
3298;DHT22;1661;53.572;10.174;2022-10-31T06:28:08;14.20;91.80
3298;DHT22;1661;53.572;10.174;2022-10-31T06:30:35;14.20;91.80
3298;DHT22;1661;53.572;10.174;2022-10-31T06:33:04;14.30;92.00
3298;DHT22;1661;53.572;10.174;2022-10-31T06:35:31;14.30;92.10
3298;DHT22;1661;53.572;10.174;2022-10-31T06:37:57;14.40;92.40
3298;DHT22;1661;53.572;10.174;2022-10-31T06:40:24;14.40;92.60
3298;DHT22;1661;53.572;10.174;2022-10-31T06:42:57;14.40;92.60
3298;DHT22;1661;53.572;10.174;2022-10-31T06:45:24;14.50;92.80
3298;DHT22;1661;53.572;10.174;2022-10-31T06:47:52;14.50;92.80
3298;DHT22;1661;53.572;10.174;2022-10-31T06:50:20;14.50;92.80
3298;DHT22;1661;53.572;10.174;2022-10-31T06:52:51;14.60;92.90
3298;DHT22;1661;53.572;10.174;2022-10-31T06:55:18;14.60;92.80
3298;DHT22;1661;53.572;10.174;2022-10-31T06:57:49;14.70;92.80
3298;DHT22;1661;53.572;10.174;2022-10-31T07:00:16;14.70;92.90
3298;DHT22;1661;53.572;10.174;2022-10-31T07:02:43;14.70;93.00
3298;DHT22;1661;53.572;10.174;2022-10-31T07:05:10;14.80;93.00
3298;DHT22;1661;53.572;10.174;2022-10-31T07:07:38;14.80;93.00
3298;DHT22;1661;53.572;10.174;2022-10-31T07:10:05;14.80;93.00
3298;DHT22;1661;53.572;10.174;2022-10-31T07:12:32;14.80;93.00
3298;DHT22;1661;53.572;10.174;2022-10-31T07:14:58;14.90;93.00
3298;DHT22;1661;53.572;10.174;2022-10-31T07:17:25;14.90;93.00
3298;DHT22;1661;53.572;10.174;2022-10-31T07:19:52;14.90;92.90
3298;DHT22;1661;53.572;10.174;2022-10-31T07:22:18;15.00;92.80
3298;DHT22;1661;53.572;10.174;2022-10-31T07:24:46;15.00;92.80
3298;DHT22;1661;53.572;10.174;2022-10-31T07:27:13;15.00;92.70
3298;DHT22;1661;53.572;10.174;2022-10-31T07:29:40;15.10;92.60
3298;DHT22;1661;53.572;10.174;2022-10-31T07:32:06;15.10;92.60
3298;DHT22;1661;53.572;10.174;2022-10-31T07:34:33;15.10;92.40
3298;DHT22;1661;53.572;10.174;2022-10-31T07:37:00;15.10;92.40
3298;DHT22;1661;53.572;10.174;2022-10-31T07:39:27;15.10;92.40
3298;DHT22;1661;53.572;10.174;2022-10-31T07:41:57;15.10;92.40
3298;DHT22;1661;53.572;10.174;2022-10-31T07:44:24;15.00;92.60
3298;DHT22;1661;53.572;10.174;2022-10-31T07:46:51;15.10;92.60
3298;DHT22;1661;53.572;10.174;2022-10-31T07:49:18;15.10;92.60
3298;DHT22;1661;53.572;10.174;2022-10-31T07:51:44;15.10;92.60
3298;DHT22;1661;53.572;10.174;2022-10-31T07:54:11;15.10;92.50
3298;DHT22;1661;53.572;10.174;2022-10-31T07:56:38;15.10;92.60
3298;DHT22;1661;53.572;10.174;2022-10-31T07:59:06;15.10;92.70
3298;DHT22;1661;53.572;10.174;2022-10-31T08:01:33;15.10;92.90
3298;DHT22;1661;53.572;10.174;2022-10-31T08:03:59;15.10;92.90
3298;DHT22;1661;53.572;10.174;2022-10-31T08:06:26;15.10;92.90
3298;DHT22;1661;53.572;10.174;2022-10-31T08:08:53;15.10;92.70
3298;DHT22;1661;53.572;10.174;2022-10-31T08:11:19;15.10;93.00
3298;DHT22;1661;53.572;10.174;2022-10-31T08:13:46;15.20;93.10
3298;DHT22;1661;53.572;10.174;2022-10-31T08:16:14;15.20;93.20
3298;DHT22;1661;53.572;10.174;2022-10-31T08:18:41;15.30;93.20
3298;DHT22;1661;53.572;10.174;2022-10-31T08:21:08;15.20;93.20
3298;DHT22;1661;53.572;10.174;2022-10-31T08:23:36;15.30;93.40
3298;DHT22;1661;53.572;10.174;2022-10-31T08:26:02;15.40;93.30
3298;DHT22;1661;53.572;10.174;2022-10-31T08:28:31;15.40;92.90
3298;DHT22;1661;53.572;10.174;2022-10-31T08:30:58;15.50;92.80
3298;DHT22;1661;53.572;10.174;2022-10-31T08:33:26;15.50;92.80
3298;DHT22;1661;53.572;10.174;2022-10-31T08:35:53;15.60;92.80
3298;DHT22;1661;53.572;10.174;2022-10-31T08:38:20;15.60;92.40
3298;DHT22;1661;53.572;10.174;2022-10-31T08:40:48;15.70;92.40
3298;DHT22;1661;53.572;10.174;2022-10-31T08:43:16;15.70;92.30
3298;DHT22;1661;53.572;10.174;2022-10-31T08:45:44;15.80;92.20
3298;DHT22;1661;53.572;10.174;2022-10-31T08:48:15;15.80;91.70
3298;DHT22;1661;53.572;10.174;2022-10-31T08:50:44;15.80;91.50
3298;DHT22;1661;53.572;10.174;2022-10-31T08:53:13;15.90;91.60
3298;DHT22;1661;53.572;10.174;2022-10-31T08:55:40;15.90;91.10
3298;DHT22;1661;53.572;10.174;2022-10-31T08:58:10;15.90;90.60
3298;DHT22;1661;53.572;10.174;2022-10-31T09:00:37;15.80;90.40
3298;DHT22;1661;53.572;10.174;2022-10-31T09:03:07;15.80;90.50
3298;DHT22;1661;53.572;10.174;2022-10-31T09:05:35;15.80;90.80
3298;DHT22;1661;53.572;10.174;2022-10-31T09:08:04;15.90;90.90
3298;DHT22;1661;53.572;10.174;2022-10-31T09:10:33;15.90;90.70
3298;DHT22;1661;53.572;10.174;2022-10-31T09:13:01;15.90;90.60
3298;DHT22;1661;53.572;10.174;2022-10-31T09:15:32;15.90;90.10
3298;DHT22;1661;53.572;10.174;2022-10-31T09:17:58;15.80;89.50
3298;DHT22;1661;53.572;10.174;2022-10-31T09:20:26;15.80;89.80
3298;DHT22;1661;53.572;10.174;2022-10-31T09:22:56;15.80;90.30
3298;DHT22;1661;53.572;10.174;2022-10-31T09:25:25;15.80;90.50
3298;DHT22;1661;53.572;10.174;2022-10-31T09:27:55;15.90;90.50
3298;DHT22;1661;53.572;10.174;2022-10-31T09:30:23;16.00;90.40
3298;DHT22;1661;53.572;10.174;2022-10-31T09:32:55;16.00;90.40
3298;DHT22;1661;53.572;10.174;2022-10-31T09:35:21;16.10;90.20
3298;DHT22;1661;53.572;10.174;2022-10-31T09:37:53;16.10;90.00
3298;DHT22;1661;53.572;10.174;2022-10-31T09:40:20;16.20;90.00
3298;DHT22;1661;53.572;10.174;2022-10-31T09:42:57;16.20;89.70
3298;DHT22;1661;53.572;10.174;2022-10-31T09:45:30;16.30;89.70
3298;DHT22;1661;53.572;10.174;2022-10-31T09:48:32;16.20;88.80
3298;DHT22;1661;53.572;10.174;2022-10-31T09:51:05;16.30;89.20
3298;DHT22;1661;53.572;10.174;2022-10-31T09:53:37;16.30;89.00
3298;DHT22;1661;53.572;10.174;2022-10-31T09:56:07;16.30;88.40
3298;DHT22;1661;53.572;10.174;2022-10-31T09:58:41;16.30;87.90
3298;DHT22;1661;53.572;10.174;2022-10-31T10:01:39;16.40;88.00
3298;DHT22;1661;53.572;10.174;2022-10-31T10:04:28;16.40;87.90
3298;DHT22;1661;53.572;10.174;2022-10-31T10:06:56;16.50;87.40
3298;DHT22;1661;53.572;10.174;2022-10-31T10:09:26;16.50;87.10
3298;DHT22;1661;53.572;10.174;2022-10-31T10:12:01;16.60;86.90
3298;DHT22;1661;53.572;10.174;2022-10-31T10:14:44;16.70;86.30
3298;DHT22;1661;53.572;10.174;2022-10-31T10:17:26;16.70;86.20
3298;DHT22;1661;53.572;10.174;2022-10-31T10:20:10;16.80;85.30
3298;DHT22;1661;53.572;10.174;2022-10-31T10:22:45;16.80;84.30
3298;DHT22;1661;53.572;10.174;2022-10-31T10:25:16;16.80;83.90
3298;DHT22;1661;53.572;10.174;2022-10-31T10:27:54;16.80;83.10
3298;DHT22;1661;53.572;10.174;2022-10-31T10:30:26;16.80;83.20
3298;DHT22;1661;53.572;10.174;2022-10-31T10:32:58;16.90;83.50
3298;DHT22;1661;53.572;10.174;2022-10-31T10:35:30;16.90;83.20
3298;DHT22;1661;53.572;10.174;2022-10-31T10:38:02;17.00;83.30
3298;DHT22;1661;53.572;10.174;2022-10-31T10:40:30;17.00;82.70
3298;DHT22;1661;53.572;10.174;2022-10-31T10:43:17;17.10;83.10
3298;DHT22;1661;53.572;10.174;2022-10-31T10:45:58;17.20;82.90
3298;DHT22;1661;53.572;10.174;2022-10-31T10:48:47;17.20;82.70
3298;DHT22;1661;53.572;10.174;2022-10-31T10:51:23;17.30;82.70
3298;DHT22;1661;53.572;10.174;2022-10-31T10:54:09;17.30;82.30
3298;DHT22;1661;53.572;10.174;2022-10-31T10:56:54;17.30;81.40
3298;DHT22;1661;53.572;10.174;2022-10-31T10:59:25;17.30;81.70
3298;DHT22;1661;53.572;10.174;2022-10-31T11:01:52;17.30;81.60
3298;DHT22;1661;53.572;10.174;2022-10-31T11:04:30;17.40;81.10
3298;DHT22;1661;53.572;10.174;2022-10-31T11:06:59;17.50;80.80
3298;DHT22;1661;53.572;10.174;2022-10-31T11:09:27;17.60;80.50
3298;DHT22;1661;53.572;10.174;2022-10-31T11:11:54;17.70;80.40
3298;DHT22;1661;53.572;10.174;2022-10-31T11:14:22;17.80;80.20
3298;DHT22;1661;53.572;10.174;2022-10-31T11:16:51;17.90;79.90
3298;DHT22;1661;53.572;10.174;2022-10-31T11:30:11;18.80;74.80
3298;DHT22;1661;53.572;10.174;2022-10-31T11:32:53;19.10;74.40
3298;DHT22;1661;53.572;10.174;2022-10-31T11:35:26;19.30;73.40
3298;DHT22;1661;53.572;10.174;2022-10-31T11:44:10;19.40;72.30
3298;DHT22;1661;53.572;10.174;2022-10-31T11:46:40;19.50;72.20
3298;DHT22;1661;53.572;10.174;2022-10-31T11:49:15;19.60;72.00
3298;DHT22;1661;53.572;10.174;2022-10-31T11:51:49;19.60;71.70
3298;DHT22;1661;53.572;10.174;2022-10-31T11:54:27;19.60;71.10
3298;DHT22;1661;53.572;10.174;2022-10-31T11:56:57;19.50;71.30
3298;DHT22;1661;53.572;10.174;2022-10-31T11:59:31;19.40;72.10
3298;DHT22;1661;53.572;10.174;2022-10-31T12:02:02;19.30;72.40
3298;DHT22;1661;53.572;10.174;2022-10-31T12:04:35;19.30;72.40
3298;DHT22;1661;53.572;10.174;2022-10-31T12:07:06;19.20;72.80
3298;DHT22;1661;53.572;10.174;2022-10-31T12:09:35;19.20;73.20
3298;DHT22;1661;53.572;10.174;2022-10-31T12:12:29;19.40;73.70
3298;DHT22;1661;53.572;10.174;2022-10-31T12:15:12;19.60;72.60
3298;DHT22;1661;53.572;10.174;2022-10-31T12:17:48;19.70;71.20
3298;DHT22;1661;53.572;10.174;2022-10-31T12:20:26;19.80;70.90
3298;DHT22;1661;53.572;10.174;2022-10-31T12:23:02;20.00;70.30
3298;DHT22;1661;53.572;10.174;2022-10-31T12:25:39;20.00;69.80
3298;DHT22;1661;53.572;10.174;2022-10-31T12:28:33;20.00;69.30
3298;DHT22;1661;53.572;10.174;2022-10-31T12:31:24;20.00;69.30
3298;DHT22;1661;53.572;10.174;2022-10-31T12:34:01;19.90;69.60
3298;DHT22;1661;53.572;10.174;2022-10-31T12:36:46;19.90;70.10
3298;DHT22;1661;53.572;10.174;2022-10-31T12:39:24;19.90;69.70
3298;DHT22;1661;53.572;10.174;2022-10-31T12:41:56;20.00;69.60
3298;DHT22;1661;53.572;10.174;2022-10-31T12:47:55;19.90;70.00
3298;DHT22;1661;53.572;10.174;2022-10-31T12:50:31;20.00;70.20
3298;DHT22;1661;53.572;10.174;2022-10-31T12:53:14;20.10;69.20
3298;DHT22;1661;53.572;10.174;2022-10-31T12:55:50;20.00;69.50
3298;DHT22;1661;53.572;10.174;2022-10-31T12:58:22;19.80;69.70
3298;DHT22;1661;53.572;10.174;2022-10-31T13:01:01;19.70;69.90
3298;DHT22;1661;53.572;10.174;2022-10-31T13:03:34;19.60;70.70
3298;DHT22;1661;53.572;10.174;2022-10-31T13:06:05;19.50;71.00
3298;DHT22;1661;53.572;10.174;2022-10-31T13:08:37;19.30;71.20
3298;DHT22;1661;53.572;10.174;2022-10-31T13:11:10;19.20;71.60
3298;DHT22;1661;53.572;10.174;2022-10-31T13:13:41;19.30;72.20
3298;DHT22;1661;53.572;10.174;2022-10-31T13:16:13;19.30;72.00
3298;DHT22;1661;53.572;10.174;2022-10-31T13:18:46;19.30;71.20
3298;DHT22;1661;53.572;10.174;2022-10-31T13:21:21;19.30;71.30
3298;DHT22;1661;53.572;10.174;2022-10-31T13:23:50;19.30;71.10
3298;DHT22;1661;53.572;10.174;2022-10-31T13:26:23;19.30;71.30
3298;DHT22;1661;53.572;10.174;2022-10-31T13:28:59;19.20;71.30
3298;DHT22;1661;53.572;10.174;2022-10-31T13:31:28;19.10;71.40
3298;DHT22;1661;53.572;10.174;2022-10-31T13:33:58;19.00;71.80
3298;DHT22;1661;53.572;10.174;2022-10-31T13:36:32;18.90;72.20
3298;DHT22;1661;53.572;10.174;2022-10-31T13:39:08;18.90;72.50
3298;DHT22;1661;53.572;10.174;2022-10-31T13:41:44;18.80;72.90
3298;DHT22;1661;53.572;10.174;2022-10-31T13:44:15;18.80;73.40
3298;DHT22;1661;53.572;10.174;2022-10-31T13:46:44;18.80;73.30
3298;DHT22;1661;53.572;10.174;2022-10-31T13:49:25;18.80;73.10
3298;DHT22;1661;53.572;10.174;2022-10-31T13:51:52;18.80;73.10
3298;DHT22;1661;53.572;10.174;2022-10-31T13:54:21;18.80;73.00
3298;DHT22;1661;53.572;10.174;2022-10-31T13:56:49;18.80;73.10
3298;DHT22;1661;53.572;10.174;2022-10-31T13:59:19;18.80;73.10
3298;DHT22;1661;53.572;10.174;2022-10-31T14:01:50;18.90;72.70
3298;DHT22;1661;53.572;10.174;2022-10-31T14:04:19;18.80;72.80
3298;DHT22;1661;53.572;10.174;2022-10-31T14:06:57;18.70;72.70
3298;DHT22;1661;53.572;10.174;2022-10-31T14:09:28;18.50;73.20
3298;DHT22;1661;53.572;10.174;2022-10-31T14:11:57;18.50;73.60
3298;DHT22;1661;53.572;10.174;2022-10-31T14:14:35;18.50;73.80
3298;DHT22;1661;53.572;10.174;2022-10-31T14:17:12;18.50;74.00
3298;DHT22;1661;53.572;10.174;2022-10-31T14:19:40;18.50;73.90
3298;DHT22;1661;53.572;10.174;2022-10-31T14:22:20;18.40;74.20
3298;DHT22;1661;53.572;10.174;2022-10-31T14:24:47;18.40;74.10
3298;DHT22;1661;53.572;10.174;2022-10-31T14:27:34;18.40;74.30
3298;DHT22;1661;53.572;10.174;2022-10-31T14:30:15;18.40;74.60
3298;DHT22;1661;53.572;10.174;2022-10-31T14:32:43;18.30;74.60
3298;DHT22;1661;53.572;10.174;2022-10-31T14:35:15;18.30;74.70
3298;DHT22;1661;53.572;10.174;2022-10-31T14:38:02;18.20;74.80
3298;DHT22;1661;53.572;10.174;2022-10-31T14:40:39;18.10;75.00
3298;DHT22;1661;53.572;10.174;2022-10-31T14:43:27;18.10;74.70
3298;DHT22;1661;53.572;10.174;2022-10-31T14:46:01;18.00;75.00
3298;DHT22;1661;53.572;10.174;2022-10-31T14:48:42;17.80;75.30
3298;DHT22;1661;53.572;10.174;2022-10-31T14:51:13;17.80;75.40
3298;DHT22;1661;53.572;10.174;2022-10-31T14:53:46;17.70;75.70
3298;DHT22;1661;53.572;10.174;2022-10-31T14:56:20;17.60;76.10
3298;DHT22;1661;53.572;10.174;2022-10-31T14:58:48;17.40;76.60
3298;DHT22;1661;53.572;10.174;2022-10-31T15:01:22;17.30;76.90
3298;DHT22;1661;53.572;10.174;2022-10-31T15:03:49;17.20;77.30
3298;DHT22;1661;53.572;10.174;2022-10-31T15:06:19;17.00;78.10
3298;DHT22;1661;53.572;10.174;2022-10-31T15:08:51;16.90;78.50
3298;DHT22;1661;53.572;10.174;2022-10-31T15:11:22;16.90;78.80
3298;DHT22;1661;53.572;10.174;2022-10-31T15:13:51;16.90;78.80
3298;DHT22;1661;53.572;10.174;2022-10-31T15:16:21;16.90;78.80
3298;DHT22;1661;53.572;10.174;2022-10-31T15:18:52;16.90;78.70
3298;DHT22;1661;53.572;10.174;2022-10-31T15:21:21;16.90;78.70
3298;DHT22;1661;53.572;10.174;2022-10-31T15:23:53;16.90;78.70
3298;DHT22;1661;53.572;10.174;2022-10-31T15:26:21;16.90;78.60
3298;DHT22;1661;53.572;10.174;2022-10-31T15:28:58;16.90;78.70
3298;DHT22;1661;53.572;10.174;2022-10-31T15:31:26;16.80;78.90
3298;DHT22;1661;53.572;10.174;2022-10-31T15:33:53;16.70;78.80
3298;DHT22;1661;53.572;10.174;2022-10-31T15:36:24;16.60;79.10
3298;DHT22;1661;53.572;10.174;2022-10-31T15:38:52;16.50;79.40
3298;DHT22;1661;53.572;10.174;2022-10-31T15:41:26;16.30;80.10
3298;DHT22;1661;53.572;10.174;2022-10-31T15:43:55;16.20;80.60
3298;DHT22;1661;53.572;10.174;2022-10-31T15:46:23;16.10;80.90
3298;DHT22;1661;53.572;10.174;2022-10-31T15:48:52;16.10;81.20
3298;DHT22;1661;53.572;10.174;2022-10-31T15:51:26;16.00;81.40
3298;DHT22;1661;53.572;10.174;2022-10-31T15:53:55;16.00;81.60
3298;DHT22;1661;53.572;10.174;2022-10-31T15:56:24;15.90;81.90
3298;DHT22;1661;53.572;10.174;2022-10-31T15:58:52;15.90;81.90
3298;DHT22;1661;53.572;10.174;2022-10-31T16:01:22;15.90;81.90
3298;DHT22;1661;53.572;10.174;2022-10-31T16:04:20;15.80;81.90
3298;DHT22;1661;53.572;10.174;2022-10-31T16:06:58;15.70;82.40
3298;DHT22;1661;53.572;10.174;2022-10-31T16:09:27;15.50;82.80
3298;DHT22;1661;53.572;10.174;2022-10-31T16:11:56;15.40;83.60
3298;DHT22;1661;53.572;10.174;2022-10-31T16:14:25;15.20;84.20
3298;DHT22;1661;53.572;10.174;2022-10-31T16:16:54;15.10;84.80
3298;DHT22;1661;53.572;10.174;2022-10-31T16:19:25;15.00;85.40
3298;DHT22;1661;53.572;10.174;2022-10-31T16:21:55;14.90;86.00
3298;DHT22;1661;53.572;10.174;2022-10-31T16:24:27;14.90;86.30
3298;DHT22;1661;53.572;10.174;2022-10-31T16:26:59;14.90;86.30
3298;DHT22;1661;53.572;10.174;2022-10-31T16:29:33;14.80;86.60